Startpagina
METAR-TAF:

METAR-TAF

Vliegvelden :

Flughafen Mönchengladbach

Mönchengladbach, Duitsland

breedte: 51-13-49N, lengte: 006-30-16E, hoogte: 38 m

Actueel weer

Dit bericht is 20 minuten geleden gemaakt, om 19:50 UTC
Wind 14 kt uit het noordwesten
Temperatuur 8°C
Vochtigheid 71%
Druk 1020 hPa
Zicht 10 km of meer

METAR: EDLN 231950Z AUTO 31014KT 9999 // SCT028/// BKN037/// OVC170/// 08/03 Q1020

Tijdstip: 21:10 (20:10 UTC)

Verwachting

Dit bericht is 3 uur en het 10 minuten geleden gemaakt, om 17:00 UTC
Verwachting geldig van 23 om 18 UTC tot 24 om 03 UTC
Wind 15 kt uit het westnoordwesten met uitschieters tot 25 kt
Zicht 10 km of meer
Gebroken wolken op 2500 ft
Wijzigt naar
van 23 om 18 UTC tot 23 om 20 UTC
Wind 10 kt uit het westen
Wijzigt naar
van 24 om 00 UTC tot 24 om 03 UTC
Wind 5 kt uit het zuidwesten

TAF: EDLN 231700Z 2318/2403 29015G25KT 9999 BKN025 BECMG 2318/2320 28010KT BECMG 2400/2403 22005KT

Waarnemingen en weersverwachtingen van meer dan 4000 vliegvelden (METAR en TAF).

De beschikbare stations zijn de gele en rode punten op de kaart.

Ga met uw muis naar het station om de naam te zien.

Klik dan om waarnemingen en weersverwachtingen te zien.

kaart wijzigen: klik op de groene knoppen met een zwart kruis om in te zoomen, op de groene knop met een streepje om uit te zoomen of op de groene pijlen voor aangrenzende kaarten.


METAR-TAF: